sensor_id;sensor_type;location;lat;lon;timestamp;P1;durP1;ratioP1;P2;durP2;ratioP2
60292;SDS011;52402;52.670;6.750;2024-02-21T00:00:17;28.48;;;26.98;;
60292;SDS011;52402;52.670;6.750;2024-02-21T00:02:43;29.65;;;28.05;;
60292;SDS011;52402;52.670;6.750;2024-02-21T00:05:09;29.17;;;27.67;;
60292;SDS011;52402;52.670;6.750;2024-02-21T00:07:34;28.05;;;26.55;;
60292;SDS011;52402;52.670;6.750;2024-02-21T00:10:00;30.63;;;29.02;;
60292;SDS011;52402;52.670;6.750;2024-02-21T00:12:26;29.45;;;27.85;;
60292;SDS011;52402;52.670;6.750;2024-02-21T00:14:51;28.55;;;27.05;;
60292;SDS011;52402;52.670;6.750;2024-02-21T00:17:19;28.60;;;27.10;;
60292;SDS011;52402;52.670;6.750;2024-02-21T00:19:44;29.48;;;27.88;;
60292;SDS011;52402;52.670;6.750;2024-02-21T00:22:10;29.48;;;27.88;;
60292;SDS011;52402;52.670;6.750;2024-02-21T00:24:36;29.73;;;28.13;;
60292;SDS011;52402;52.670;6.750;2024-02-21T00:27:02;29.58;;;27.98;;
60292;SDS011;52402;52.670;6.750;2024-02-21T00:29:27;29.95;;;28.35;;
60292;SDS011;52402;52.670;6.750;2024-02-21T00:31:53;30.02;;;28.42;;
60292;SDS011;52402;52.670;6.750;2024-02-21T00:34:19;28.38;;;26.88;;
60292;SDS011;52402;52.670;6.750;2024-02-21T00:36:45;28.13;;;26.63;;
60292;SDS011;52402;52.670;6.750;2024-02-21T00:39:10;27.30;;;25.90;;
60292;SDS011;52402;52.670;6.750;2024-02-21T00:41:36;27.70;;;26.30;;
60292;SDS011;52402;52.670;6.750;2024-02-21T00:44:02;26.70;;;25.30;;
60292;SDS011;52402;52.670;6.750;2024-02-21T00:46:30;27.85;;;26.35;;
60292;SDS011;52402;52.670;6.750;2024-02-21T00:48:56;27.95;;;26.45;;
60292;SDS011;52402;52.670;6.750;2024-02-21T00:51:21;27.52;;;26.13;;
60292;SDS011;52402;52.670;6.750;2024-02-21T00:53:47;27.15;;;25.75;;
60292;SDS011;52402;52.670;6.750;2024-02-21T00:56:14;27.83;;;26.33;;
60292;SDS011;52402;52.670;6.750;2024-02-21T00:58:39;28.00;;;26.52;;
60292;SDS011;52402;52.670;6.750;2024-02-21T01:01:05;27.90;;;26.40;;
60292;SDS011;52402;52.670;6.750;2024-02-21T01:03:30;28.48;;;26.98;;
60292;SDS011;52402;52.670;6.750;2024-02-21T01:05:56;28.05;;;26.55;;
60292;SDS011;52402;52.670;6.750;2024-02-21T01:08:22;28.13;;;26.63;;
60292;SDS011;52402;52.670;6.750;2024-02-21T01:10:48;28.92;;;27.42;;
60292;SDS011;52402;52.670;6.750;2024-02-21T01:13:14;28.48;;;26.98;;
60292;SDS011;52402;52.670;6.750;2024-02-21T01:15:39;27.75;;;26.30;;
60292;SDS011;52402;52.670;6.750;2024-02-21T01:18:05;29.55;;;27.95;;
60292;SDS011;52402;52.670;6.750;2024-02-21T01:20:31;28.80;;;27.30;;
60292;SDS011;52402;52.670;6.750;2024-02-21T01:22:57;28.58;;;27.08;;
60292;SDS011;52402;52.670;6.750;2024-02-21T01:25:23;28.95;;;27.45;;
60292;SDS011;52402;52.670;6.750;2024-02-21T01:27:48;28.75;;;27.25;;
60292;SDS011;52402;52.670;6.750;2024-02-21T01:30:14;29.42;;;27.88;;
60292;SDS011;52402;52.670;6.750;2024-02-21T01:32:39;30.02;;;28.45;;
60292;SDS011;52402;52.670;6.750;2024-02-21T01:35:06;29.25;;;27.75;;
60292;SDS011;52402;52.670;6.750;2024-02-21T01:37:32;29.75;;;28.23;;
60292;SDS011;52402;52.670;6.750;2024-02-21T01:39:58;29.95;;;28.35;;
60292;SDS011;52402;52.670;6.750;2024-02-21T01:42:24;29.52;;;28.02;;
60292;SDS011;52402;52.670;6.750;2024-02-21T01:44:49;29.17;;;27.67;;
60292;SDS011;52402;52.670;6.750;2024-02-21T01:47:16;28.33;;;26.85;;
60292;SDS011;52402;52.670;6.750;2024-02-21T01:49:41;29.80;;;28.20;;
60292;SDS011;52402;52.670;6.750;2024-02-21T01:52:09;30.40;;;28.80;;
60292;SDS011;52402;52.670;6.750;2024-02-21T01:54:37;28.05;;;26.55;;
60292;SDS011;52402;52.670;6.750;2024-02-21T01:57:03;28.25;;;26.75;;
60292;SDS011;52402;52.670;6.750;2024-02-21T01:59:29;28.05;;;26.55;;
60292;SDS011;52402;52.670;6.750;2024-02-21T02:01:55;29.73;;;28.13;;
60292;SDS011;52402;52.670;6.750;2024-02-21T02:04:21;29.85;;;28.30;;
60292;SDS011;52402;52.670;6.750;2024-02-21T02:06:50;29.45;;;27.95;;
60292;SDS011;52402;52.670;6.750;2024-02-21T02:09:16;28.33;;;26.85;;
60292;SDS011;52402;52.670;6.750;2024-02-21T02:11:43;29.73;;;28.15;;
60292;SDS011;52402;52.670;6.750;2024-02-21T02:14:09;29.33;;;27.83;;
60292;SDS011;52402;52.670;6.750;2024-02-21T02:16:34;29.27;;;27.77;;
60292;SDS011;52402;52.670;6.750;2024-02-21T02:19:00;29.55;;;28.05;;
60292;SDS011;52402;52.670;6.750;2024-02-21T02:21:29;29.33;;;27.83;;
60292;SDS011;52402;52.670;6.750;2024-02-21T02:23:58;28.45;;;26.95;;
60292;SDS011;52402;52.670;6.750;2024-02-21T02:26:24;28.50;;;27.00;;
60292;SDS011;52402;52.670;6.750;2024-02-21T02:28:50;28.55;;;27.05;;
60292;SDS011;52402;52.670;6.750;2024-02-21T02:31:15;28.55;;;27.05;;
60292;SDS011;52402;52.670;6.750;2024-02-21T02:33:44;30.40;;;28.80;;
60292;SDS011;52402;52.670;6.750;2024-02-21T02:36:09;31.67;;;30.08;;
60292;SDS011;52402;52.670;6.750;2024-02-21T02:38:35;30.58;;;28.98;;
60292;SDS011;52402;52.670;6.750;2024-02-21T02:41:02;29.63;;;28.05;;
60292;SDS011;52402;52.670;6.750;2024-02-21T02:43:27;30.20;;;28.60;;
60292;SDS011;52402;52.670;6.750;2024-02-21T02:45:53;30.42;;;28.83;;
60292;SDS011;52402;52.670;6.750;2024-02-21T02:48:19;28.15;;;26.63;;
60292;SDS011;52402;52.670;6.750;2024-02-21T02:53:29;30.25;;;28.58;;
60292;SDS011;52402;52.670;6.750;2024-02-21T02:55:54;28.95;;;27.35;;
60292;SDS011;52402;52.670;6.750;2024-02-21T02:58:20;28.60;;;27.00;;
60292;SDS011;52402;52.670;6.750;2024-02-21T03:00:46;28.58;;;26.98;;
60292;SDS011;52402;52.670;6.750;2024-02-21T03:03:11;28.15;;;26.55;;
60292;SDS011;52402;52.670;6.750;2024-02-21T03:05:37;28.75;;;27.05;;
60292;SDS011;52402;52.670;6.750;2024-02-21T03:08:03;27.88;;;26.27;;
60292;SDS011;52402;52.670;6.750;2024-02-21T03:10:32;26.73;;;25.15;;
60292;SDS011;52402;52.670;6.750;2024-02-21T03:12:58;26.25;;;24.70;;
60292;SDS011;52402;52.670;6.750;2024-02-21T03:15:23;28.10;;;26.40;;
60292;SDS011;52402;52.670;6.750;2024-02-21T03:17:49;26.92;;;25.33;;
60292;SDS011;52402;52.670;6.750;2024-02-21T03:20:15;27.05;;;25.45;;
60292;SDS011;52402;52.670;6.750;2024-02-21T03:22:41;26.13;;;24.52;;
60292;SDS011;52402;52.670;6.750;2024-02-21T03:25:07;26.23;;;24.63;;
60292;SDS011;52402;52.670;6.750;2024-02-21T03:27:36;26.58;;;24.98;;
60292;SDS011;52402;52.670;6.750;2024-02-21T03:30:02;26.20;;;24.60;;
60292;SDS011;52402;52.670;6.750;2024-02-21T03:32:29;25.25;;;23.65;;
60292;SDS011;52402;52.670;6.750;2024-02-21T03:34:55;27.17;;;25.48;;
60292;SDS011;52402;52.670;6.750;2024-02-21T03:37:20;26.30;;;24.70;;
60292;SDS011;52402;52.670;6.750;2024-02-21T03:39:48;27.15;;;25.45;;
60292;SDS011;52402;52.670;6.750;2024-02-21T03:42:27;26.23;;;24.63;;
60292;SDS011;52402;52.670;6.750;2024-02-21T03:44:55;26.30;;;24.70;;
60292;SDS011;52402;52.670;6.750;2024-02-21T03:47:21;27.00;;;25.30;;
60292;SDS011;52402;52.670;6.750;2024-02-21T03:49:47;26.52;;;24.92;;
60292;SDS011;52402;52.670;6.750;2024-02-21T03:52:12;26.45;;;24.85;;
60292;SDS011;52402;52.670;6.750;2024-02-21T03:54:38;26.05;;;24.45;;
60292;SDS011;52402;52.670;6.750;2024-02-21T03:57:04;27.35;;;25.65;;
60292;SDS011;52402;52.670;6.750;2024-02-21T03:59:30;27.67;;;25.98;;
60292;SDS011;52402;52.670;6.750;2024-02-21T04:01:56;27.23;;;25.55;;
60292;SDS011;52402;52.670;6.750;2024-02-21T04:04:21;27.63;;;25.92;;
60292;SDS011;52402;52.670;6.750;2024-02-21T04:06:48;28.17;;;26.48;;
60292;SDS011;52402;52.670;6.750;2024-02-21T04:09:14;28.13;;;26.42;;
60292;SDS011;52402;52.670;6.750;2024-02-21T04:11:39;28.90;;;27.10;;
60292;SDS011;52402;52.670;6.750;2024-02-21T04:14:05;27.30;;;25.65;;
60292;SDS011;52402;52.670;6.750;2024-02-21T04:16:31;27.55;;;25.85;;
60292;SDS011;52402;52.670;6.750;2024-02-21T04:18:56;28.00;;;26.30;;
60292;SDS011;52402;52.670;6.750;2024-02-21T04:21:22;28.35;;;26.65;;
60292;SDS011;52402;52.670;6.750;2024-02-21T04:23:47;28.67;;;26.98;;
60292;SDS011;52402;52.670;6.750;2024-02-21T04:26:13;27.50;;;25.90;;
60292;SDS011;52402;52.670;6.750;2024-02-21T04:28:39;28.00;;;26.30;;
60292;SDS011;52402;52.670;6.750;2024-02-21T04:31:04;28.85;;;27.15;;
60292;SDS011;52402;52.670;6.750;2024-02-21T04:33:30;28.70;;;27.00;;
60292;SDS011;52402;52.670;6.750;2024-02-21T04:35:56;28.77;;;27.08;;
60292;SDS011;52402;52.670;6.750;2024-02-21T04:38:23;29.42;;;27.73;;
60292;SDS011;52402;52.670;6.750;2024-02-21T04:40:49;29.88;;;28.13;;
60292;SDS011;52402;52.670;6.750;2024-02-21T04:43:14;28.15;;;26.45;;
60292;SDS011;52402;52.670;6.750;2024-02-21T04:45:40;27.73;;;26.13;;
60292;SDS011;52402;52.670;6.750;2024-02-21T04:48:06;28.38;;;26.67;;
60292;SDS011;52402;52.670;6.750;2024-02-21T04:50:32;29.05;;;27.35;;
60292;SDS011;52402;52.670;6.750;2024-02-21T04:52:57;27.90;;;26.20;;
60292;SDS011;52402;52.670;6.750;2024-02-21T04:55:23;29.15;;;27.45;;
60292;SDS011;52402;52.670;6.750;2024-02-21T04:57:49;28.15;;;26.50;;
60292;SDS011;52402;52.670;6.750;2024-02-21T05:00:14;28.83;;;27.13;;
60292;SDS011;52402;52.670;6.750;2024-02-21T05:02:40;28.77;;;27.13;;
60292;SDS011;52402;52.670;6.750;2024-02-21T05:05:06;29.20;;;27.50;;
60292;SDS011;52402;52.670;6.750;2024-02-21T05:07:32;29.00;;;27.30;;
60292;SDS011;52402;52.670;6.750;2024-02-21T05:09:57;28.52;;;26.92;;
60292;SDS011;52402;52.670;6.750;2024-02-21T05:12:23;28.95;;;27.35;;
60292;SDS011;52402;52.670;6.750;2024-02-21T05:14:48;28.83;;;27.23;;
60292;SDS011;52402;52.670;6.750;2024-02-21T05:17:15;29.05;;;27.38;;
60292;SDS011;52402;52.670;6.750;2024-02-21T05:19:40;30.63;;;28.92;;
60292;SDS011;52402;52.670;6.750;2024-02-21T05:22:06;29.52;;;27.85;;
60292;SDS011;52402;52.670;6.750;2024-02-21T05:24:32;29.05;;;27.42;;
60292;SDS011;52402;52.670;6.750;2024-02-21T05:26:58;30.23;;;28.52;;
60292;SDS011;52402;52.670;6.750;2024-02-21T05:29:23;29.75;;;28.05;;
60292;SDS011;52402;52.670;6.750;2024-02-21T05:34:18;29.35;;;27.75;;
60292;SDS011;52402;52.670;6.750;2024-02-21T05:36:44;30.02;;;28.33;;
60292;SDS011;52402;52.670;6.750;2024-02-21T05:39:11;29.13;;;27.52;;
60292;SDS011;52402;52.670;6.750;2024-02-21T05:41:36;30.23;;;28.52;;
60292;SDS011;52402;52.670;6.750;2024-02-21T05:44:02;30.35;;;28.65;;
60292;SDS011;52402;52.670;6.750;2024-02-21T05:46:28;29.73;;;28.02;;
60292;SDS011;52402;52.670;6.750;2024-02-21T05:48:53;29.88;;;28.17;;
60292;SDS011;52402;52.670;6.750;2024-02-21T05:51:19;28.23;;;26.63;;
60292;SDS011;52402;52.670;6.750;2024-02-21T05:53:45;28.95;;;27.35;;
60292;SDS011;52402;52.670;6.750;2024-02-21T05:56:10;30.45;;;28.75;;
60292;SDS011;52402;52.670;6.750;2024-02-21T05:58:37;29.80;;;28.20;;
60292;SDS011;52402;52.670;6.750;2024-02-21T06:01:03;30.13;;;28.52;;
60292;SDS011;52402;52.670;6.750;2024-02-21T06:03:30;28.45;;;26.95;;
60292;SDS011;52402;52.670;6.750;2024-02-21T06:05:55;30.38;;;28.77;;
60292;SDS011;52402;52.670;6.750;2024-02-21T06:08:21;30.63;;;28.98;;
60292;SDS011;52402;52.670;6.750;2024-02-21T06:10:47;30.00;;;28.40;;
60292;SDS011;52402;52.670;6.750;2024-02-21T06:13:13;29.35;;;27.75;;
60292;SDS011;52402;52.670;6.750;2024-02-21T06:15:39;29.85;;;28.25;;
60292;SDS011;52402;52.670;6.750;2024-02-21T06:18:05;29.45;;;27.85;;
60292;SDS011;52402;52.670;6.750;2024-02-21T06:20:31;29.30;;;27.70;;
60292;SDS011;52402;52.670;6.750;2024-02-21T06:22:56;28.95;;;27.35;;
60292;SDS011;52402;52.670;6.750;2024-02-21T06:25:22;30.55;;;28.95;;
60292;SDS011;52402;52.670;6.750;2024-02-21T06:27:48;28.40;;;26.80;;
60292;SDS011;52402;52.670;6.750;2024-02-21T06:30:13;28.08;;;26.58;;
60292;SDS011;52402;52.670;6.750;2024-02-21T06:32:39;27.80;;;26.30;;
60292;SDS011;52402;52.670;6.750;2024-02-21T06:35:05;29.55;;;27.95;;
60292;SDS011;52402;52.670;6.750;2024-02-21T06:37:30;30.08;;;28.42;;
60292;SDS011;52402;52.670;6.750;2024-02-21T06:39:57;28.48;;;26.92;;
60292;SDS011;52402;52.670;6.750;2024-02-21T06:42:24;29.92;;;28.25;;
60292;SDS011;52402;52.670;6.750;2024-02-21T06:44:50;30.60;;;28.90;;
60292;SDS011;52402;52.670;6.750;2024-02-21T06:47:16;29.13;;;27.52;;
60292;SDS011;52402;52.670;6.750;2024-02-21T06:49:42;29.60;;;27.98;;
60292;SDS011;52402;52.670;6.750;2024-02-21T06:52:07;29.40;;;27.80;;
60292;SDS011;52402;52.670;6.750;2024-02-21T06:54:33;29.20;;;27.60;;
60292;SDS011;52402;52.670;6.750;2024-02-21T06:56:58;28.15;;;26.55;;
60292;SDS011;52402;52.670;6.750;2024-02-21T06:59:24;29.35;;;27.75;;
60292;SDS011;52402;52.670;6.750;2024-02-21T07:01:53;29.88;;;28.17;;
60292;SDS011;52402;52.670;6.750;2024-02-21T07:04:22;29.73;;;28.08;;
60292;SDS011;52402;52.670;6.750;2024-02-21T07:06:48;28.73;;;27.13;;
60292;SDS011;52402;52.670;6.750;2024-02-21T07:09:13;27.85;;;26.25;;
60292;SDS011;52402;52.670;6.750;2024-02-21T07:11:41;28.65;;;27.05;;
60292;SDS011;52402;52.670;6.750;2024-02-21T07:14:07;29.15;;;27.45;;
60292;SDS011;52402;52.670;6.750;2024-02-21T07:16:32;28.67;;;27.08;;
60292;SDS011;52402;52.670;6.750;2024-02-21T07:18:58;28.67;;;27.08;;
60292;SDS011;52402;52.670;6.750;2024-02-21T07:21:23;28.52;;;26.92;;
60292;SDS011;52402;52.670;6.750;2024-02-21T07:23:49;27.42;;;25.83;;
60292;SDS011;52402;52.670;6.750;2024-02-21T07:26:15;27.70;;;26.10;;
60292;SDS011;52402;52.670;6.750;2024-02-21T07:28:40;26.42;;;24.92;;
60292;SDS011;52402;52.670;6.750;2024-02-21T07:31:06;26.15;;;24.65;;
60292;SDS011;52402;52.670;6.750;2024-02-21T07:33:31;26.15;;;24.65;;
60292;SDS011;52402;52.670;6.750;2024-02-21T07:35:57;27.13;;;25.52;;
60292;SDS011;52402;52.670;6.750;2024-02-21T07:38:23;26.15;;;24.65;;
60292;SDS011;52402;52.670;6.750;2024-02-21T07:40:48;25.50;;;24.00;;
60292;SDS011;52402;52.670;6.750;2024-02-21T07:43:14;26.02;;;24.52;;
60292;SDS011;52402;52.670;6.750;2024-02-21T07:45:40;26.33;;;24.83;;
60292;SDS011;52402;52.670;6.750;2024-02-21T07:48:06;24.77;;;23.30;;
60292;SDS011;52402;52.670;6.750;2024-02-21T07:50:32;26.15;;;24.65;;
60292;SDS011;52402;52.670;6.750;2024-02-21T07:53:21;25.83;;;24.33;;
60292;SDS011;52402;52.670;6.750;2024-02-21T07:55:49;27.08;;;25.48;;
60292;SDS011;52402;52.670;6.750;2024-02-21T07:58:55;25.50;;;24.00;;
60292;SDS011;52402;52.670;6.750;2024-02-21T08:01:21;26.00;;;24.50;;
60292;SDS011;52402;52.670;6.750;2024-02-21T08:03:46;24.80;;;23.40;;
60292;SDS011;52402;52.670;6.750;2024-02-21T08:06:12;24.90;;;23.50;;
60292;SDS011;52402;52.670;6.750;2024-02-21T08:09:00;25.33;;;23.83;;
60292;SDS011;52402;52.670;6.750;2024-02-21T08:12:00;25.80;;;24.30;;
60292;SDS011;52402;52.670;6.750;2024-02-21T08:14:44;27.05;;;25.45;;
60292;SDS011;52402;52.670;6.750;2024-02-21T08:17:09;25.73;;;24.23;;
60292;SDS011;52402;52.670;6.750;2024-02-21T08:19:35;25.70;;;24.20;;
60292;SDS011;52402;52.670;6.750;2024-02-21T08:22:01;26.00;;;24.50;;
60292;SDS011;52402;52.670;6.750;2024-02-21T08:24:28;26.08;;;24.58;;
60292;SDS011;52402;52.670;6.750;2024-02-21T08:26:54;23.95;;;22.55;;
60292;SDS011;52402;52.670;6.750;2024-02-21T08:29:19;25.73;;;24.23;;
60292;SDS011;52402;52.670;6.750;2024-02-21T08:31:45;26.08;;;24.58;;
60292;SDS011;52402;52.670;6.750;2024-02-21T08:34:10;25.88;;;24.38;;
60292;SDS011;52402;52.670;6.750;2024-02-21T08:36:38;25.42;;;23.92;;
60292;SDS011;52402;52.670;6.750;2024-02-21T08:39:03;25.42;;;23.92;;
60292;SDS011;52402;52.670;6.750;2024-02-21T08:41:33;24.75;;;23.25;;
60292;SDS011;52402;52.670;6.750;2024-02-21T08:43:59;25.33;;;23.83;;
60292;SDS011;52402;52.670;6.750;2024-02-21T08:46:47;26.20;;;24.70;;
60292;SDS011;52402;52.670;6.750;2024-02-21T08:56:17;24.17;;;22.77;;
60292;SDS011;52402;52.670;6.750;2024-02-21T08:58:54;24.70;;;23.30;;
60292;SDS011;52402;52.670;6.750;2024-02-21T09:01:20;26.08;;;24.58;;
60292;SDS011;52402;52.670;6.750;2024-02-21T09:03:51;25.30;;;23.80;;
60292;SDS011;52402;52.670;6.750;2024-02-21T09:06:24;24.45;;;23.05;;
60292;SDS011;52402;52.670;6.750;2024-02-21T09:14:37;24.35;;;22.95;;
60292;SDS011;52402;52.670;6.750;2024-02-21T09:17:06;23.58;;;22.17;;
60292;SDS011;52402;52.670;6.750;2024-02-21T09:19:31;24.55;;;23.15;;
60292;SDS011;52402;52.670;6.750;2024-02-21T09:21:57;23.02;;;21.65;;
60292;SDS011;52402;52.670;6.750;2024-02-21T09:24:23;24.13;;;22.73;;
60292;SDS011;52402;52.670;6.750;2024-02-21T09:26:54;23.40;;;22.00;;
60292;SDS011;52402;52.670;6.750;2024-02-21T09:29:20;24.17;;;22.77;;
60292;SDS011;52402;52.670;6.750;2024-02-21T09:31:46;24.05;;;22.65;;
60292;SDS011;52402;52.670;6.750;2024-02-21T09:34:12;23.48;;;22.08;;
60292;SDS011;52402;52.670;6.750;2024-02-21T09:36:38;23.80;;;22.40;;
60292;SDS011;52402;52.670;6.750;2024-02-21T09:39:05;23.58;;;22.17;;
60292;SDS011;52402;52.670;6.750;2024-02-21T09:41:31;23.08;;;21.67;;
60292;SDS011;52402;52.670;6.750;2024-02-21T09:44:01;23.63;;;22.23;;
60292;SDS011;52402;52.670;6.750;2024-02-21T09:46:32;22.45;;;21.15;;
60292;SDS011;52402;52.670;6.750;2024-02-21T09:51:52;22.02;;;20.73;;
60292;SDS011;52402;52.670;6.750;2024-02-21T09:54:20;21.88;;;20.58;;
60292;SDS011;52402;52.670;6.750;2024-02-21T09:56:47;22.45;;;21.15;;
60292;SDS011;52402;52.670;6.750;2024-02-21T09:59:16;22.50;;;21.20;;
60292;SDS011;52402;52.670;6.750;2024-02-21T10:01:43;21.98;;;20.67;;
60292;SDS011;52402;52.670;6.750;2024-02-21T10:04:12;22.85;;;21.55;;
60292;SDS011;52402;52.670;6.750;2024-02-21T10:06:38;21.13;;;19.92;;
60292;SDS011;52402;52.670;6.750;2024-02-21T10:09:05;21.95;;;20.65;;
60292;SDS011;52402;52.670;6.750;2024-02-21T10:11:33;21.17;;;19.98;;
60292;SDS011;52402;52.670;6.750;2024-02-21T10:14:05;20.80;;;19.60;;
60292;SDS011;52402;52.670;6.750;2024-02-21T10:16:31;21.52;;;20.25;;
60292;SDS011;52402;52.670;6.750;2024-02-21T10:18:58;20.95;;;19.75;;
60292;SDS011;52402;52.670;6.750;2024-02-21T10:21:24;19.70;;;18.50;;
60292;SDS011;52402;52.670;6.750;2024-02-21T10:23:50;20.25;;;19.05;;
60292;SDS011;52402;52.670;6.750;2024-02-21T10:26:20;19.95;;;18.75;;
60292;SDS011;52402;52.670;6.750;2024-02-21T10:28:46;20.55;;;19.35;;
60292;SDS011;52402;52.670;6.750;2024-02-21T10:31:31;20.35;;;19.15;;
60292;SDS011;52402;52.670;6.750;2024-02-21T10:34:01;19.70;;;18.50;;
60292;SDS011;52402;52.670;6.750;2024-02-21T10:36:33;20.10;;;18.90;;
60292;SDS011;52402;52.670;6.750;2024-02-21T10:38:59;20.40;;;19.20;;
60292;SDS011;52402;52.670;6.750;2024-02-21T10:41:25;19.92;;;18.73;;
60292;SDS011;52402;52.670;6.750;2024-02-21T10:43:53;19.92;;;18.73;;
60292;SDS011;52402;52.670;6.750;2024-02-21T10:46:21;19.10;;;18.00;;
60292;SDS011;52402;52.670;6.750;2024-02-21T10:48:48;19.92;;;18.73;;
60292;SDS011;52402;52.670;6.750;2024-02-21T10:51:43;19.80;;;18.60;;
60292;SDS011;52402;52.670;6.750;2024-02-21T10:56:51;19.20;;;18.10;;
60292;SDS011;52402;52.670;6.750;2024-02-21T10:59:16;19.10;;;18.00;;
60292;SDS011;52402;52.670;6.750;2024-02-21T11:01:45;19.08;;;17.98;;
60292;SDS011;52402;52.670;6.750;2024-02-21T11:04:11;19.35;;;18.20;;
60292;SDS011;52402;52.670;6.750;2024-02-21T11:06:37;19.52;;;18.40;;
60292;SDS011;52402;52.670;6.750;2024-02-21T11:09:05;19.70;;;18.50;;
60292;SDS011;52402;52.670;6.750;2024-02-21T11:11:39;19.75;;;18.55;;
60292;SDS011;52402;52.670;6.750;2024-02-21T11:14:17;19.33;;;18.17;;
60292;SDS011;52402;52.670;6.750;2024-02-21T11:16:44;20.40;;;19.20;;
60292;SDS011;52402;52.670;6.750;2024-02-21T11:19:10;19.50;;;18.30;;
60292;SDS011;52402;52.670;6.750;2024-02-21T11:21:43;19.83;;;18.63;;
60292;SDS011;52402;52.670;6.750;2024-02-21T11:24:09;19.83;;;18.63;;
60292;SDS011;52402;52.670;6.750;2024-02-21T11:26:37;19.25;;;18.08;;
60292;SDS011;52402;52.670;6.750;2024-02-21T11:29:03;19.95;;;18.75;;
60292;SDS011;52402;52.670;6.750;2024-02-21T11:31:40;19.00;;;17.90;;
60292;SDS011;52402;52.670;6.750;2024-02-21T11:34:10;18.42;;;17.33;;
60292;SDS011;52402;52.670;6.750;2024-02-21T11:36:39;19.38;;;18.17;;
60292;SDS011;52402;52.670;6.750;2024-02-21T11:39:22;18.67;;;17.58;;
60292;SDS011;52402;52.670;6.750;2024-02-21T11:42:05;18.33;;;17.23;;
60292;SDS011;52402;52.670;6.750;2024-02-21T11:44:38;18.83;;;17.65;;
60292;SDS011;52402;52.670;6.750;2024-02-21T11:47:07;18.95;;;17.77;;
60292;SDS011;52402;52.670;6.750;2024-02-21T11:49:44;18.50;;;17.40;;
60292;SDS011;52402;52.670;6.750;2024-02-21T11:52:43;18.60;;;17.50;;
60292;SDS011;52402;52.670;6.750;2024-02-21T11:55:39;18.83;;;17.73;;
60292;SDS011;52402;52.670;6.750;2024-02-21T11:58:15;19.33;;;18.13;;
60292;SDS011;52402;52.670;6.750;2024-02-21T12:04:05;18.67;;;17.58;;
60292;SDS011;52402;52.670;6.750;2024-02-21T12:06:44;18.88;;;17.77;;
60292;SDS011;52402;52.670;6.750;2024-02-21T12:12:24;18.35;;;17.25;;
60292;SDS011;52402;52.670;6.750;2024-02-21T12:15:07;18.27;;;17.17;;
60292;SDS011;52402;52.670;6.750;2024-02-21T12:18:13;18.35;;;17.25;;
60292;SDS011;52402;52.670;6.750;2024-02-21T12:20:42;18.08;;;16.98;;
60292;SDS011;52402;52.670;6.750;2024-02-21T12:23:26;19.15;;;17.95;;
60292;SDS011;52402;52.670;6.750;2024-02-21T12:26:36;19.08;;;17.88;;
60292;SDS011;52402;52.670;6.750;2024-02-21T12:29:02;18.55;;;17.45;;
60292;SDS011;52402;52.670;6.750;2024-02-21T12:31:28;18.20;;;17.10;;
60292;SDS011;52402;52.670;6.750;2024-02-21T12:33:53;18.13;;;17.02;;
60292;SDS011;52402;52.670;6.750;2024-02-21T12:36:19;18.40;;;17.30;;
60292;SDS011;52402;52.670;6.750;2024-02-21T12:38:45;18.40;;;17.30;;
60292;SDS011;52402;52.670;6.750;2024-02-21T12:41:14;18.25;;;17.15;;
60292;SDS011;52402;52.670;6.750;2024-02-21T12:43:57;18.20;;;17.10;;
60292;SDS011;52402;52.670;6.750;2024-02-21T12:46:23;18.30;;;17.20;;
60292;SDS011;52402;52.670;6.750;2024-02-21T12:48:49;17.92;;;16.83;;
60292;SDS011;52402;52.670;6.750;2024-02-21T12:51:21;18.60;;;17.50;;
60292;SDS011;52402;52.670;6.750;2024-02-21T12:53:55;18.67;;;17.58;;
60292;SDS011;52402;52.670;6.750;2024-02-21T12:56:24;18.10;;;17.00;;
60292;SDS011;52402;52.670;6.750;2024-02-21T12:58:54;18.80;;;17.70;;
60292;SDS011;52402;52.670;6.750;2024-02-21T13:01:21;18.80;;;17.70;;
60292;SDS011;52402;52.670;6.750;2024-02-21T13:03:49;18.98;;;17.88;;
60292;SDS011;52402;52.670;6.750;2024-02-21T13:06:46;19.00;;;17.90;;
60292;SDS011;52402;52.670;6.750;2024-02-21T13:10:12;19.10;;;18.00;;
60292;SDS011;52402;52.670;6.750;2024-02-21T13:15:30;18.90;;;17.80;;
60292;SDS011;52402;52.670;6.750;2024-02-21T13:17:56;18.73;;;17.63;;
60292;SDS011;52402;52.670;6.750;2024-02-21T13:20:32;18.45;;;17.35;;
60292;SDS011;52402;52.670;6.750;2024-02-21T13:27:54;17.92;;;16.83;;
60292;SDS011;52402;52.670;6.750;2024-02-21T13:30:21;17.77;;;16.67;;
60292;SDS011;52402;52.670;6.750;2024-02-21T13:32:47;18.17;;;17.08;;
60292;SDS011;52402;52.670;6.750;2024-02-21T13:35:14;18.02;;;16.92;;
60292;SDS011;52402;52.670;6.750;2024-02-21T13:37:43;18.08;;;16.98;;
60292;SDS011;52402;52.670;6.750;2024-02-21T13:40:09;17.70;;;16.60;;
60292;SDS011;52402;52.670;6.750;2024-02-21T13:42:35;17.70;;;16.60;;
60292;SDS011;52402;52.670;6.750;2024-02-21T13:45:01;17.58;;;16.58;;
60292;SDS011;52402;52.670;6.750;2024-02-21T13:47:28;17.23;;;16.23;;
60292;SDS011;52402;52.670;6.750;2024-02-21T13:49:54;17.40;;;16.30;;
60292;SDS011;52402;52.670;6.750;2024-02-21T13:52:20;17.10;;;16.10;;
60292;SDS011;52402;52.670;6.750;2024-02-21T13:54:46;17.27;;;16.27;;
60292;SDS011;52402;52.670;6.750;2024-02-21T13:57:12;17.02;;;16.02;;
60292;SDS011;52402;52.670;6.750;2024-02-21T13:59:39;17.40;;;16.40;;
60292;SDS011;52402;52.670;6.750;2024-02-21T14:02:05;17.55;;;16.45;;
60292;SDS011;52402;52.670;6.750;2024-02-21T14:04:35;17.02;;;16.02;;
60292;SDS011;52402;52.670;6.750;2024-02-21T14:07:01;17.65;;;16.55;;
60292;SDS011;52402;52.670;6.750;2024-02-21T14:09:27;17.63;;;16.55;;
60292;SDS011;52402;52.670;6.750;2024-02-21T14:11:57;17.48;;;16.42;;
60292;SDS011;52402;52.670;6.750;2024-02-21T14:14:24;17.77;;;16.67;;
60292;SDS011;52402;52.670;6.750;2024-02-21T14:16:49;18.25;;;17.15;;
60292;SDS011;52402;52.670;6.750;2024-02-21T14:19:15;17.55;;;16.45;;
60292;SDS011;52402;52.670;6.750;2024-02-21T14:21:41;18.08;;;16.98;;
60292;SDS011;52402;52.670;6.750;2024-02-21T14:24:09;18.02;;;16.92;;
60292;SDS011;52402;52.670;6.750;2024-02-21T14:26:35;18.33;;;17.23;;
60292;SDS011;52402;52.670;6.750;2024-02-21T14:29:01;18.00;;;16.90;;
60292;SDS011;52402;52.670;6.750;2024-02-21T14:31:28;17.70;;;16.60;;
60292;SDS011;52402;52.670;6.750;2024-02-21T14:33:56;17.80;;;16.70;;
60292;SDS011;52402;52.670;6.750;2024-02-21T14:36:21;17.58;;;16.48;;
60292;SDS011;52402;52.670;6.750;2024-02-21T14:38:49;17.45;;;16.42;;
60292;SDS011;52402;52.670;6.750;2024-02-21T14:41:16;17.88;;;16.77;;
60292;SDS011;52402;52.670;6.750;2024-02-21T14:43:44;16.75;;;15.75;;
60292;SDS011;52402;52.670;6.750;2024-02-21T14:46:11;18.27;;;17.17;;
60292;SDS011;52402;52.670;6.750;2024-02-21T14:48:37;18.05;;;16.95;;
60292;SDS011;52402;52.670;6.750;2024-02-21T14:51:03;18.10;;;17.00;;
60292;SDS011;52402;52.670;6.750;2024-02-21T14:53:29;17.30;;;16.30;;
60292;SDS011;52402;52.670;6.750;2024-02-21T14:55:56;17.88;;;16.77;;
60292;SDS011;52402;52.670;6.750;2024-02-21T14:58:23;18.08;;;16.98;;
60292;SDS011;52402;52.670;6.750;2024-02-21T15:00:50;18.10;;;17.00;;
60292;SDS011;52402;52.670;6.750;2024-02-21T15:03:15;18.13;;;17.02;;